sensor_id;sensor_type;location;lat;lon;timestamp;temperature;humidity
60868;DHT22;46702;48.370;10.794;2023-09-18T00:00:40;16.60;99.90
60868;DHT22;46702;48.370;10.794;2023-09-18T00:03:08;16.40;99.90
60868;DHT22;46702;48.370;10.794;2023-09-18T00:05:34;16.40;99.90
60868;DHT22;46702;48.370;10.794;2023-09-18T00:08:00;16.40;99.90
60868;DHT22;46702;48.370;10.794;2023-09-18T00:10:28;16.40;99.90
60868;DHT22;46702;48.370;10.794;2023-09-18T00:12:57;16.50;99.90
60868;DHT22;46702;48.370;10.794;2023-09-18T00:15:23;16.40;99.90
60868;DHT22;46702;48.370;10.794;2023-09-18T00:17:49;16.40;99.90
60868;DHT22;46702;48.370;10.794;2023-09-18T00:20:15;16.40;99.90
60868;DHT22;46702;48.370;10.794;2023-09-18T00:22:43;16.40;99.90
60868;DHT22;46702;48.370;10.794;2023-09-18T00:25:08;16.40;99.90
60868;DHT22;46702;48.370;10.794;2023-09-18T00:27:34;16.40;99.90
60868;DHT22;46702;48.370;10.794;2023-09-18T00:30:03;16.40;99.90
60868;DHT22;46702;48.370;10.794;2023-09-18T00:32:29;16.40;99.90
60868;DHT22;46702;48.370;10.794;2023-09-18T00:34:55;16.40;99.90
60868;DHT22;46702;48.370;10.794;2023-09-18T00:37:20;16.40;99.90
60868;DHT22;46702;48.370;10.794;2023-09-18T00:39:46;16.40;99.90
60868;DHT22;46702;48.370;10.794;2023-09-18T00:42:11;16.40;99.90
60868;DHT22;46702;48.370;10.794;2023-09-18T00:44:41;16.50;99.90
60868;DHT22;46702;48.370;10.794;2023-09-18T00:47:08;16.40;99.90
60868;DHT22;46702;48.370;10.794;2023-09-18T00:49:35;16.30;99.90
60868;DHT22;46702;48.370;10.794;2023-09-18T00:52:02;16.30;99.90
60868;DHT22;46702;48.370;10.794;2023-09-18T00:54:28;16.30;99.90
60868;DHT22;46702;48.370;10.794;2023-09-18T00:56:54;16.20;99.90
60868;DHT22;46702;48.370;10.794;2023-09-18T00:59:21;16.20;99.90
60868;DHT22;46702;48.370;10.794;2023-09-18T01:01:48;16.10;99.90
60868;DHT22;46702;48.370;10.794;2023-09-18T01:04:16;16.00;99.90
60868;DHT22;46702;48.370;10.794;2023-09-18T01:06:42;15.90;99.90
60868;DHT22;46702;48.370;10.794;2023-09-18T01:09:08;15.90;99.90
60868;DHT22;46702;48.370;10.794;2023-09-18T01:12:11;16.00;99.90
60868;DHT22;46702;48.370;10.794;2023-09-18T01:17:12;15.80;99.90
60868;DHT22;46702;48.370;10.794;2023-09-18T01:19:46;15.80;99.90
60868;DHT22;46702;48.370;10.794;2023-09-18T01:22:17;15.70;99.90
60868;DHT22;46702;48.370;10.794;2023-09-18T01:24:44;15.60;99.90
60868;DHT22;46702;48.370;10.794;2023-09-18T01:27:14;15.70;99.90
60868;DHT22;46702;48.370;10.794;2023-09-18T01:29:42;15.70;99.90
60868;DHT22;46702;48.370;10.794;2023-09-18T01:32:08;15.70;99.90
60868;DHT22;46702;48.370;10.794;2023-09-18T01:34:51;15.60;99.90
60868;DHT22;46702;48.370;10.794;2023-09-18T01:37:20;15.50;99.90
60868;DHT22;46702;48.370;10.794;2023-09-18T01:39:48;15.50;99.90
60868;DHT22;46702;48.370;10.794;2023-09-18T01:42:15;15.50;99.90
60868;DHT22;46702;48.370;10.794;2023-09-18T01:44:41;15.50;99.90
60868;DHT22;46702;48.370;10.794;2023-09-18T01:47:09;15.60;99.90
60868;DHT22;46702;48.370;10.794;2023-09-18T01:49:38;15.60;99.90
60868;DHT22;46702;48.370;10.794;2023-09-18T01:52:05;15.50;99.90
60868;DHT22;46702;48.370;10.794;2023-09-18T01:54:32;15.50;99.90
60868;DHT22;46702;48.370;10.794;2023-09-18T01:56:58;15.60;99.90
60868;DHT22;46702;48.370;10.794;2023-09-18T01:59:24;15.70;99.90
60868;DHT22;46702;48.370;10.794;2023-09-18T02:01:51;15.70;99.90
60868;DHT22;46702;48.370;10.794;2023-09-18T02:04:17;15.70;99.90
60868;DHT22;46702;48.370;10.794;2023-09-18T02:06:43;15.80;99.90
60868;DHT22;46702;48.370;10.794;2023-09-18T02:09:08;15.80;99.90
60868;DHT22;46702;48.370;10.794;2023-09-18T02:11:43;15.80;99.90
60868;DHT22;46702;48.370;10.794;2023-09-18T02:14:09;15.70;99.90
60868;DHT22;46702;48.370;10.794;2023-09-18T02:16:40;15.40;99.90
60868;DHT22;46702;48.370;10.794;2023-09-18T02:19:13;15.20;99.90
60868;DHT22;46702;48.370;10.794;2023-09-18T02:21:39;15.20;99.90
60868;DHT22;46702;48.370;10.794;2023-09-18T02:24:05;15.20;99.90
60868;DHT22;46702;48.370;10.794;2023-09-18T02:26:31;15.20;99.90
60868;DHT22;46702;48.370;10.794;2023-09-18T02:28:59;15.30;99.90
60868;DHT22;46702;48.370;10.794;2023-09-18T02:31:25;15.30;99.90
60868;DHT22;46702;48.370;10.794;2023-09-18T02:33:51;15.20;99.90
60868;DHT22;46702;48.370;10.794;2023-09-18T02:36:16;15.20;99.90
60868;DHT22;46702;48.370;10.794;2023-09-18T02:38:42;15.20;99.90
60868;DHT22;46702;48.370;10.794;2023-09-18T02:41:09;15.20;99.90
60868;DHT22;46702;48.370;10.794;2023-09-18T02:43:34;15.30;99.90
60868;DHT22;46702;48.370;10.794;2023-09-18T02:46:00;15.20;99.90
60868;DHT22;46702;48.370;10.794;2023-09-18T02:48:25;15.20;99.90
60868;DHT22;46702;48.370;10.794;2023-09-18T02:50:51;15.20;99.90
60868;DHT22;46702;48.370;10.794;2023-09-18T02:53:21;15.10;99.90
60868;DHT22;46702;48.370;10.794;2023-09-18T02:55:50;15.20;99.90
60868;DHT22;46702;48.370;10.794;2023-09-18T02:58:16;15.20;99.90
60868;DHT22;46702;48.370;10.794;2023-09-18T03:00:45;15.30;99.90
60868;DHT22;46702;48.370;10.794;2023-09-18T03:03:11;15.30;99.90
60868;DHT22;46702;48.370;10.794;2023-09-18T03:05:38;15.30;99.90
60868;DHT22;46702;48.370;10.794;2023-09-18T03:08:04;15.10;99.90
60868;DHT22;46702;48.370;10.794;2023-09-18T03:10:37;14.60;99.90
60868;DHT22;46702;48.370;10.794;2023-09-18T03:13:05;14.50;99.90
60868;DHT22;46702;48.370;10.794;2023-09-18T03:15:31;14.50;99.90
60868;DHT22;46702;48.370;10.794;2023-09-18T03:18:01;14.70;99.90
60868;DHT22;46702;48.370;10.794;2023-09-18T03:20:28;14.70;99.90
60868;DHT22;46702;48.370;10.794;2023-09-18T03:22:55;14.70;99.90
60868;DHT22;46702;48.370;10.794;2023-09-18T03:25:21;14.70;99.90
60868;DHT22;46702;48.370;10.794;2023-09-18T03:27:54;14.80;99.90
60868;DHT22;46702;48.370;10.794;2023-09-18T03:30:21;14.80;99.90
60868;DHT22;46702;48.370;10.794;2023-09-18T03:32:49;14.80;99.90
60868;DHT22;46702;48.370;10.794;2023-09-18T03:35:15;14.90;99.90
60868;DHT22;46702;48.370;10.794;2023-09-18T03:37:44;14.90;99.90
60868;DHT22;46702;48.370;10.794;2023-09-18T03:40:10;14.90;99.90
60868;DHT22;46702;48.370;10.794;2023-09-18T03:42:36;14.90;99.90
60868;DHT22;46702;48.370;10.794;2023-09-18T03:45:01;14.70;99.90
60868;DHT22;46702;48.370;10.794;2023-09-18T03:47:28;14.60;99.90
60868;DHT22;46702;48.370;10.794;2023-09-18T03:49:54;14.60;99.90
60868;DHT22;46702;48.370;10.794;2023-09-18T03:52:19;14.60;99.90
60868;DHT22;46702;48.370;10.794;2023-09-18T03:54:45;14.50;99.90
60868;DHT22;46702;48.370;10.794;2023-09-18T03:57:11;14.50;99.90
60868;DHT22;46702;48.370;10.794;2023-09-18T03:59:36;14.50;99.90
60868;DHT22;46702;48.370;10.794;2023-09-18T04:02:02;14.50;99.90
60868;DHT22;46702;48.370;10.794;2023-09-18T04:04:29;14.40;99.90
60868;DHT22;46702;48.370;10.794;2023-09-18T04:06:54;14.40;99.90
60868;DHT22;46702;48.370;10.794;2023-09-18T04:09:20;14.40;99.90
60868;DHT22;46702;48.370;10.794;2023-09-18T04:11:45;14.40;99.90
60868;DHT22;46702;48.370;10.794;2023-09-18T04:14:11;14.40;99.90
60868;DHT22;46702;48.370;10.794;2023-09-18T04:16:36;14.30;99.90
60868;DHT22;46702;48.370;10.794;2023-09-18T04:19:03;14.30;99.90
60868;DHT22;46702;48.370;10.794;2023-09-18T04:21:29;14.10;99.90
60868;DHT22;46702;48.370;10.794;2023-09-18T04:23:55;14.20;99.90
60868;DHT22;46702;48.370;10.794;2023-09-18T04:26:26;14.30;99.90
60868;DHT22;46702;48.370;10.794;2023-09-18T04:28:56;14.30;99.90
60868;DHT22;46702;48.370;10.794;2023-09-18T04:31:22;14.40;99.90
60868;DHT22;46702;48.370;10.794;2023-09-18T04:33:48;14.40;99.90
60868;DHT22;46702;48.370;10.794;2023-09-18T04:36:14;14.50;99.90
60868;DHT22;46702;48.370;10.794;2023-09-18T04:38:39;14.50;99.90
60868;DHT22;46702;48.370;10.794;2023-09-18T04:41:05;14.40;99.90
60868;DHT22;46702;48.370;10.794;2023-09-18T04:43:33;14.30;99.90
60868;DHT22;46702;48.370;10.794;2023-09-18T04:46:00;14.20;99.90
60868;DHT22;46702;48.370;10.794;2023-09-18T04:48:26;14.20;99.90
60868;DHT22;46702;48.370;10.794;2023-09-18T04:50:51;14.20;99.90
60868;DHT22;46702;48.370;10.794;2023-09-18T04:53:17;14.20;99.90
60868;DHT22;46702;48.370;10.794;2023-09-18T04:55:43;14.10;99.90
60868;DHT22;46702;48.370;10.794;2023-09-18T04:58:08;14.10;99.90
60868;DHT22;46702;48.370;10.794;2023-09-18T05:00:34;14.20;99.90
60868;DHT22;46702;48.370;10.794;2023-09-18T05:03:00;14.20;99.90
60868;DHT22;46702;48.370;10.794;2023-09-18T05:05:27;14.20;99.90
60868;DHT22;46702;48.370;10.794;2023-09-18T05:07:55;14.30;99.90
60868;DHT22;46702;48.370;10.794;2023-09-18T05:10:20;14.30;99.90
60868;DHT22;46702;48.370;10.794;2023-09-18T05:12:48;14.30;99.90
60868;DHT22;46702;48.370;10.794;2023-09-18T05:15:15;14.40;99.90
60868;DHT22;46702;48.370;10.794;2023-09-18T05:17:46;14.50;99.90
60868;DHT22;46702;48.370;10.794;2023-09-18T05:20:13;14.60;99.90
60868;DHT22;46702;48.370;10.794;2023-09-18T05:22:41;14.50;99.90
60868;DHT22;46702;48.370;10.794;2023-09-18T05:25:10;14.50;99.90
60868;DHT22;46702;48.370;10.794;2023-09-18T05:27:37;14.60;99.90
60868;DHT22;46702;48.370;10.794;2023-09-18T05:30:19;14.60;99.90
60868;DHT22;46702;48.370;10.794;2023-09-18T05:32:47;14.70;99.90
60868;DHT22;46702;48.370;10.794;2023-09-18T05:35:13;14.70;99.90
60868;DHT22;46702;48.370;10.794;2023-09-18T05:37:40;14.70;99.90
60868;DHT22;46702;48.370;10.794;2023-09-18T05:40:07;14.70;99.90
60868;DHT22;46702;48.370;10.794;2023-09-18T05:42:41;14.60;99.90
60868;DHT22;46702;48.370;10.794;2023-09-18T05:45:11;14.50;99.90
60868;DHT22;46702;48.370;10.794;2023-09-18T05:47:37;14.60;99.90
60868;DHT22;46702;48.370;10.794;2023-09-18T05:50:05;14.70;99.90
60868;DHT22;46702;48.370;10.794;2023-09-18T05:52:32;14.80;99.90
60868;DHT22;46702;48.370;10.794;2023-09-18T05:54:58;14.90;99.90
60868;DHT22;46702;48.370;10.794;2023-09-18T05:57:23;14.90;99.90
60868;DHT22;46702;48.370;10.794;2023-09-18T05:59:49;15.00;99.90
60868;DHT22;46702;48.370;10.794;2023-09-18T06:02:15;15.10;99.90
60868;DHT22;46702;48.370;10.794;2023-09-18T06:04:42;15.10;99.90
60868;DHT22;46702;48.370;10.794;2023-09-18T06:07:07;15.10;99.90
60868;DHT22;46702;48.370;10.794;2023-09-18T06:09:33;15.20;99.90
60868;DHT22;46702;48.370;10.794;2023-09-18T06:12:00;15.20;99.90
60868;DHT22;46702;48.370;10.794;2023-09-18T06:14:25;15.30;99.90
60868;DHT22;46702;48.370;10.794;2023-09-18T06:16:51;15.30;99.90
60868;DHT22;46702;48.370;10.794;2023-09-18T06:19:17;15.40;99.90
60868;DHT22;46702;48.370;10.794;2023-09-18T06:21:44;15.50;99.90
60868;DHT22;46702;48.370;10.794;2023-09-18T06:24:09;15.50;99.90
60868;DHT22;46702;48.370;10.794;2023-09-18T06:26:35;15.50;99.90
60868;DHT22;46702;48.370;10.794;2023-09-18T06:29:01;15.50;99.90
60868;DHT22;46702;48.370;10.794;2023-09-18T06:31:27;15.50;99.90
60868;DHT22;46702;48.370;10.794;2023-09-18T06:33:53;15.50;99.90
60868;DHT22;46702;48.370;10.794;2023-09-18T06:36:19;15.60;99.90
60868;DHT22;46702;48.370;10.794;2023-09-18T06:38:44;15.70;99.90
60868;DHT22;46702;48.370;10.794;2023-09-18T06:41:10;15.80;99.90
60868;DHT22;46702;48.370;10.794;2023-09-18T06:43:35;15.80;99.90
60868;DHT22;46702;48.370;10.794;2023-09-18T06:46:01;15.90;99.90
60868;DHT22;46702;48.370;10.794;2023-09-18T06:48:27;16.10;99.90
60868;DHT22;46702;48.370;10.794;2023-09-18T06:50:58;16.10;99.90
60868;DHT22;46702;48.370;10.794;2023-09-18T06:53:23;16.30;99.90
60868;DHT22;46702;48.370;10.794;2023-09-18T06:55:49;16.30;99.90
60868;DHT22;46702;48.370;10.794;2023-09-18T06:58:14;16.30;99.90
60868;DHT22;46702;48.370;10.794;2023-09-18T07:00:40;16.40;99.90
60868;DHT22;46702;48.370;10.794;2023-09-18T07:03:06;16.40;99.90
60868;DHT22;46702;48.370;10.794;2023-09-18T07:05:31;16.50;99.90
60868;DHT22;46702;48.370;10.794;2023-09-18T07:07:57;16.60;99.90
60868;DHT22;46702;48.370;10.794;2023-09-18T07:10:23;16.80;99.90
60868;DHT22;46702;48.370;10.794;2023-09-18T07:12:49;17.00;99.90
60868;DHT22;46702;48.370;10.794;2023-09-18T07:15:14;17.10;99.90
60868;DHT22;46702;48.370;10.794;2023-09-18T07:17:40;17.10;99.90
60868;DHT22;46702;48.370;10.794;2023-09-18T07:20:06;17.20;99.90
60868;DHT22;46702;48.370;10.794;2023-09-18T07:22:48;17.30;99.90
60868;DHT22;46702;48.370;10.794;2023-09-18T07:25:14;17.50;99.90
60868;DHT22;46702;48.370;10.794;2023-09-18T07:27:40;17.50;99.90
60868;DHT22;46702;48.370;10.794;2023-09-18T07:30:10;17.50;99.90
60868;DHT22;46702;48.370;10.794;2023-09-18T07:32:38;17.60;99.90
60868;DHT22;46702;48.370;10.794;2023-09-18T07:35:05;17.70;99.90
60868;DHT22;46702;48.370;10.794;2023-09-18T07:37:31;17.90;99.90
60868;DHT22;46702;48.370;10.794;2023-09-18T07:39:56;18.10;99.90
60868;DHT22;46702;48.370;10.794;2023-09-18T07:42:25;18.30;99.90
60868;DHT22;46702;48.370;10.794;2023-09-18T07:44:51;18.50;99.90
60868;DHT22;46702;48.370;10.794;2023-09-18T07:47:17;18.60;99.90
60868;DHT22;46702;48.370;10.794;2023-09-18T07:49:42;18.70;99.90
60868;DHT22;46702;48.370;10.794;2023-09-18T07:52:08;18.90;99.90
60868;DHT22;46702;48.370;10.794;2023-09-18T07:54:34;19.00;99.90
60868;DHT22;46702;48.370;10.794;2023-09-18T07:56:59;19.20;99.90
60868;DHT22;46702;48.370;10.794;2023-09-18T07:59:26;19.30;99.90
60868;DHT22;46702;48.370;10.794;2023-09-18T08:01:52;19.40;99.90
60868;DHT22;46702;48.370;10.794;2023-09-18T08:04:20;19.50;99.90
60868;DHT22;46702;48.370;10.794;2023-09-18T08:06:46;19.50;99.90
60868;DHT22;46702;48.370;10.794;2023-09-18T08:09:12;19.50;99.90
60868;DHT22;46702;48.370;10.794;2023-09-18T08:11:41;19.50;99.90
60868;DHT22;46702;48.370;10.794;2023-09-18T08:14:08;19.50;99.90
60868;DHT22;46702;48.370;10.794;2023-09-18T08:16:34;19.70;99.90
60868;DHT22;46702;48.370;10.794;2023-09-18T08:19:03;19.70;99.90
60868;DHT22;46702;48.370;10.794;2023-09-18T08:21:29;19.90;99.90
60868;DHT22;46702;48.370;10.794;2023-09-18T08:23:55;20.20;99.90
60868;DHT22;46702;48.370;10.794;2023-09-18T08:26:21;20.30;99.90
60868;DHT22;46702;48.370;10.794;2023-09-18T08:28:47;20.50;99.90
60868;DHT22;46702;48.370;10.794;2023-09-18T08:31:13;20.70;99.90
60868;DHT22;46702;48.370;10.794;2023-09-18T08:33:41;20.80;99.90
60868;DHT22;46702;48.370;10.794;2023-09-18T08:36:07;20.90;99.90
60868;DHT22;46702;48.370;10.794;2023-09-18T08:38:33;20.90;99.90
60868;DHT22;46702;48.370;10.794;2023-09-18T08:40:58;20.90;99.90
60868;DHT22;46702;48.370;10.794;2023-09-18T08:43:24;21.00;99.90
60868;DHT22;46702;48.370;10.794;2023-09-18T08:45:55;21.20;99.90
60868;DHT22;46702;48.370;10.794;2023-09-18T08:48:28;21.50;99.90
60868;DHT22;46702;48.370;10.794;2023-09-18T08:51:03;21.70;99.90
60868;DHT22;46702;48.370;10.794;2023-09-18T08:53:35;21.90;99.90
60868;DHT22;46702;48.370;10.794;2023-09-18T08:56:02;22.10;99.90
60868;DHT22;46702;48.370;10.794;2023-09-18T08:58:33;22.10;99.90
60868;DHT22;46702;48.370;10.794;2023-09-18T09:01:03;22.00;99.90
60868;DHT22;46702;48.370;10.794;2023-09-18T09:03:31;22.00;99.90
60868;DHT22;46702;48.370;10.794;2023-09-18T09:05:59;22.00;99.90
60868;DHT22;46702;48.370;10.794;2023-09-18T09:08:30;22.10;99.90
60868;DHT22;46702;48.370;10.794;2023-09-18T09:10:55;22.10;99.90
60868;DHT22;46702;48.370;10.794;2023-09-18T09:13:24;22.10;99.90
60868;DHT22;46702;48.370;10.794;2023-09-18T09:15:54;22.10;99.90
60868;DHT22;46702;48.370;10.794;2023-09-18T09:18:25;22.10;99.90
60868;DHT22;46702;48.370;10.794;2023-09-18T09:21:00;22.00;99.90
60868;DHT22;46702;48.370;10.794;2023-09-18T09:23:28;22.10;99.90
60868;DHT22;46702;48.370;10.794;2023-09-18T09:26:00;22.10;99.90
60868;DHT22;46702;48.370;10.794;2023-09-18T09:28:37;22.10;99.90
60868;DHT22;46702;48.370;10.794;2023-09-18T09:31:03;22.20;99.90
60868;DHT22;46702;48.370;10.794;2023-09-18T09:33:29;22.20;99.90
60868;DHT22;46702;48.370;10.794;2023-09-18T09:35:55;22.20;99.90
60868;DHT22;46702;48.370;10.794;2023-09-18T09:38:28;22.20;99.90
60868;DHT22;46702;48.370;10.794;2023-09-18T09:40:54;22.30;99.90
60868;DHT22;46702;48.370;10.794;2023-09-18T09:43:20;22.40;99.90
60868;DHT22;46702;48.370;10.794;2023-09-18T09:45:46;22.40;99.90
60868;DHT22;46702;48.370;10.794;2023-09-18T09:48:12;22.40;99.90
60868;DHT22;46702;48.370;10.794;2023-09-18T09:50:47;22.60;99.90
60868;DHT22;46702;48.370;10.794;2023-09-18T09:53:15;22.70;99.90
60868;DHT22;46702;48.370;10.794;2023-09-18T09:55:40;22.80;99.90
60868;DHT22;46702;48.370;10.794;2023-09-18T09:58:08;22.70;99.90
60868;DHT22;46702;48.370;10.794;2023-09-18T10:03:12;22.50;99.90
60868;DHT22;46702;48.370;10.794;2023-09-18T10:05:39;22.40;99.90
60868;DHT22;46702;48.370;10.794;2023-09-18T10:08:11;22.30;99.90
60868;DHT22;46702;48.370;10.794;2023-09-18T10:11:01;22.20;99.90
60868;DHT22;46702;48.370;10.794;2023-09-18T10:14:02;22.20;99.90
60868;DHT22;46702;48.370;10.794;2023-09-18T10:16:31;22.20;99.90
60868;DHT22;46702;48.370;10.794;2023-09-18T10:19:17;22.20;99.90
60868;DHT22;46702;48.370;10.794;2023-09-18T10:24:34;22.20;99.90
60868;DHT22;46702;48.370;10.794;2023-09-18T10:27:02;22.00;99.90
60868;DHT22;46702;48.370;10.794;2023-09-18T10:29:30;21.90;99.90
60868;DHT22;46702;48.370;10.794;2023-09-18T10:31:56;21.80;99.90
60868;DHT22;46702;48.370;10.794;2023-09-18T10:34:23;21.80;99.90
60868;DHT22;46702;48.370;10.794;2023-09-18T10:36:53;21.80;99.90
60868;DHT22;46702;48.370;10.794;2023-09-18T10:39:20;21.70;99.90
60868;DHT22;46702;48.370;10.794;2023-09-18T10:41:54;21.70;99.90
60868;DHT22;46702;48.370;10.794;2023-09-18T10:44:20;21.60;99.90
60868;DHT22;46702;48.370;10.794;2023-09-18T10:46:47;21.50;99.90
60868;DHT22;46702;48.370;10.794;2023-09-18T10:49:14;21.40;99.90
60868;DHT22;46702;48.370;10.794;2023-09-18T10:51:40;21.30;99.90
60868;DHT22;46702;48.370;10.794;2023-09-18T10:54:13;21.10;99.90
60868;DHT22;46702;48.370;10.794;2023-09-18T10:56:41;21.00;99.90
60868;DHT22;46702;48.370;10.794;2023-09-18T10:59:08;20.80;99.90
60868;DHT22;46702;48.370;10.794;2023-09-18T11:01:35;20.60;99.90
60868;DHT22;46702;48.370;10.794;2023-09-18T11:04:05;20.40;99.90
60868;DHT22;46702;48.370;10.794;2023-09-18T11:09:24;20.30;99.90
60868;DHT22;46702;48.370;10.794;2023-09-18T11:14:49;20.30;99.90
60868;DHT22;46702;48.370;10.794;2023-09-18T11:17:51;20.20;99.90
60868;DHT22;46702;48.370;10.794;2023-09-18T11:20:20;20.10;99.90
60868;DHT22;46702;48.370;10.794;2023-09-18T11:25:36;20.00;99.90
60868;DHT22;46702;48.370;10.794;2023-09-18T11:28:15;19.90;99.90
60868;DHT22;46702;48.370;10.794;2023-09-18T11:30:51;19.90;99.90
60868;DHT22;46702;48.370;10.794;2023-09-18T11:33:33;19.90;99.90
60868;DHT22;46702;48.370;10.794;2023-09-18T11:36:11;19.80;99.90
60868;DHT22;46702;48.370;10.794;2023-09-18T11:38:56;19.60;99.90
60868;DHT22;46702;48.370;10.794;2023-09-18T11:41:24;19.50;99.90
60868;DHT22;46702;48.370;10.794;2023-09-18T11:43:51;19.40;99.90
60868;DHT22;46702;48.370;10.794;2023-09-18T11:46:21;19.30;99.90
60868;DHT22;46702;48.370;10.794;2023-09-18T11:48:48;19.20;99.90
60868;DHT22;46702;48.370;10.794;2023-09-18T11:51:21;19.10;99.90
60868;DHT22;46702;48.370;10.794;2023-09-18T11:53:51;19.00;99.90
60868;DHT22;46702;48.370;10.794;2023-09-18T11:56:18;19.00;99.90
60868;DHT22;46702;48.370;10.794;2023-09-18T11:58:46;18.90;99.90
60868;DHT22;46702;48.370;10.794;2023-09-18T12:01:11;18.90;99.90
60868;DHT22;46702;48.370;10.794;2023-09-18T12:03:38;18.70;99.90
60868;DHT22;46702;48.370;10.794;2023-09-18T12:06:04;18.70;99.90
60868;DHT22;46702;48.370;10.794;2023-09-18T12:08:31;18.70;99.90
60868;DHT22;46702;48.370;10.794;2023-09-18T12:10:58;18.60;99.90
60868;DHT22;46702;48.370;10.794;2023-09-18T12:13:27;18.70;99.90
60868;DHT22;46702;48.370;10.794;2023-09-18T12:15:57;18.70;99.90
60868;DHT22;46702;48.370;10.794;2023-09-18T12:18:24;18.70;99.90
60868;DHT22;46702;48.370;10.794;2023-09-18T12:20:51;18.60;99.90
60868;DHT22;46702;48.370;10.794;2023-09-18T12:23:17;18.70;99.90
60868;DHT22;46702;48.370;10.794;2023-09-18T12:25:48;18.70;99.90
60868;DHT22;46702;48.370;10.794;2023-09-18T12:28:15;18.70;99.90
60868;DHT22;46702;48.370;10.794;2023-09-18T12:30:42;18.70;99.90
60868;DHT22;46702;48.370;10.794;2023-09-18T12:33:08;18.70;99.90
60868;DHT22;46702;48.370;10.794;2023-09-18T12:35:34;18.70;99.90
60868;DHT22;46702;48.370;10.794;2023-09-18T12:38:00;18.70;99.90
60868;DHT22;46702;48.370;10.794;2023-09-18T12:40:27;18.70;99.90
60868;DHT22;46702;48.370;10.794;2023-09-18T12:42:57;18.60;99.90
60868;DHT22;46702;48.370;10.794;2023-09-18T12:45:26;18.60;99.90
60868;DHT22;46702;48.370;10.794;2023-09-18T12:47:54;18.70;99.90
60868;DHT22;46702;48.370;10.794;2023-09-18T12:50:21;18.70;99.90
60868;DHT22;46702;48.370;10.794;2023-09-18T12:52:46;18.70;99.90
60868;DHT22;46702;48.370;10.794;2023-09-18T12:55:26;18.60;99.90
60868;DHT22;46702;48.370;10.794;2023-09-18T12:57:55;18.50;99.90
60868;DHT22;46702;48.370;10.794;2023-09-18T13:00:22;18.50;99.90
60868;DHT22;46702;48.370;10.794;2023-09-18T13:02:51;18.60;99.90
60868;DHT22;46702;48.370;10.794;2023-09-18T13:05:24;18.50;99.90
60868;DHT22;46702;48.370;10.794;2023-09-18T13:08:05;18.50;99.90
60868;DHT22;46702;48.370;10.794;2023-09-18T13:10:44;18.60;99.90
60868;DHT22;46702;48.370;10.794;2023-09-18T13:13:18;18.60;99.90
60868;DHT22;46702;48.370;10.794;2023-09-18T13:15:44;18.60;99.90
60868;DHT22;46702;48.370;10.794;2023-09-18T13:18:14;18.70;99.90
60868;DHT22;46702;48.370;10.794;2023-09-18T13:20:41;18.60;99.90
60868;DHT22;46702;48.370;10.794;2023-09-18T13:23:07;18.60;99.90
60868;DHT22;46702;48.370;10.794;2023-09-18T13:25:38;18.60;99.90
60868;DHT22;46702;48.370;10.794;2023-09-18T13:28:07;18.60;99.90
60868;DHT22;46702;48.370;10.794;2023-09-18T13:30:35;18.60;99.90
60868;DHT22;46702;48.370;10.794;2023-09-18T13:33:06;18.50;99.90
60868;DHT22;46702;48.370;10.794;2023-09-18T13:35:54;18.60;99.90
60868;DHT22;46702;48.370;10.794;2023-09-18T13:38:22;18.50;99.90
60868;DHT22;46702;48.370;10.794;2023-09-18T13:40:48;18.50;99.90
60868;DHT22;46702;48.370;10.794;2023-09-18T13:43:14;18.60;99.90
60868;DHT22;46702;48.370;10.794;2023-09-18T13:45:41;18.50;99.90
60868;DHT22;46702;48.370;10.794;2023-09-18T13:48:08;18.60;99.90
60868;DHT22;46702;48.370;10.794;2023-09-18T13:50:34;18.60;99.90
60868;DHT22;46702;48.370;10.794;2023-09-18T13:53:01;18.50;99.90
60868;DHT22;46702;48.370;10.794;2023-09-18T13:55:29;18.60;99.90
60868;DHT22;46702;48.370;10.794;2023-09-18T13:57:55;18.60;99.90
60868;DHT22;46702;48.370;10.794;2023-09-18T14:00:22;18.70;99.90
60868;DHT22;46702;48.370;10.794;2023-09-18T14:02:48;18.70;99.90
60868;DHT22;46702;48.370;10.794;2023-09-18T14:05:15;18.80;99.90
60868;DHT22;46702;48.370;10.794;2023-09-18T14:07:40;18.60;99.90
60868;DHT22;46702;48.370;10.794;2023-09-18T14:10:10;18.70;99.90
60868;DHT22;46702;48.370;10.794;2023-09-18T14:12:40;18.70;99.90
60868;DHT22;46702;48.370;10.794;2023-09-18T14:15:07;18.80;99.90
60868;DHT22;46702;48.370;10.794;2023-09-18T14:17:37;18.70;99.90
60868;DHT22;46702;48.370;10.794;2023-09-18T14:20:04;18.80;99.90
60868;DHT22;46702;48.370;10.794;2023-09-18T14:22:35;18.80;99.90
60868;DHT22;46702;48.370;10.794;2023-09-18T14:25:00;18.90;99.90
60868;DHT22;46702;48.370;10.794;2023-09-18T14:27:31;19.00;99.90
60868;DHT22;46702;48.370;10.794;2023-09-18T14:29:57;19.00;99.90
60868;DHT22;46702;48.370;10.794;2023-09-18T14:32:24;19.10;99.90
60868;DHT22;46702;48.370;10.794;2023-09-18T14:34:50;19.10;99.90
60868;DHT22;46702;48.370;10.794;2023-09-18T14:37:16;19.10;99.90
60868;DHT22;46702;48.370;10.794;2023-09-18T14:39:41;19.00;99.90
60868;DHT22;46702;48.370;10.794;2023-09-18T14:42:07;19.10;99.90
60868;DHT22;46702;48.370;10.794;2023-09-18T14:44:33;19.10;99.90
60868;DHT22;46702;48.370;10.794;2023-09-18T14:46:59;19.20;99.90
60868;DHT22;46702;48.370;10.794;2023-09-18T14:49:25;19.20;99.90
60868;DHT22;46702;48.370;10.794;2023-09-18T14:51:53;19.30;99.90
60868;DHT22;46702;48.370;10.794;2023-09-18T14:54:19;19.20;99.90
60868;DHT22;46702;48.370;10.794;2023-09-18T14:56:45;19.30;99.90
60868;DHT22;46702;48.370;10.794;2023-09-18T14:59:12;19.30;99.90
60868;DHT22;46702;48.370;10.794;2023-09-18T15:01:38;19.30;99.90
60868;DHT22;46702;48.370;10.794;2023-09-18T15:04:03;19.30;99.90
60868;DHT22;46702;48.370;10.794;2023-09-18T15:06:29;19.30;99.90
60868;DHT22;46702;48.370;10.794;2023-09-18T15:08:55;19.30;99.90
60868;DHT22;46702;48.370;10.794;2023-09-18T15:11:21;19.30;99.90
60868;DHT22;46702;48.370;10.794;2023-09-18T15:13:46;19.30;99.90
60868;DHT22;46702;48.370;10.794;2023-09-18T15:16:12;19.30;99.90
60868;DHT22;46702;48.370;10.794;2023-09-18T15:18:38;19.30;99.90
60868;DHT22;46702;48.370;10.794;2023-09-18T15:21:05;19.30;99.90
60868;DHT22;46702;48.370;10.794;2023-09-18T15:23:30;19.30;99.90
60868;DHT22;46702;48.370;10.794;2023-09-18T15:25:56;19.40;99.90
60868;DHT22;46702;48.370;10.794;2023-09-18T15:28:23;19.30;99.90
60868;DHT22;46702;48.370;10.794;2023-09-18T15:30:50;19.30;99.90
60868;DHT22;46702;48.370;10.794;2023-09-18T15:33:16;19.30;99.90
60868;DHT22;46702;48.370;10.794;2023-09-18T15:35:43;19.40;99.90